Time;durP1;ratioP1;P1;durP2;ratioP2;P2;SDS_P1;SDS_P2;PMS_P1;PMS_P2;Temp;Humidity;BMP_temperature;BMP_pressure;BME280_temperature;BME280_humidity;BME280_pressure;Samples;Min_cycle;Max_cycle;Signal;HPM_P1;HPM_P2
2023/03/18 00:02:08;;;;;;;6.47;2.67;;;11.50;99.90;;;;;;5070572;28;20427;-53
2023/03/18 00:04:36;;;;;;;9.00;2.70;;;11.50;99.90;;;;;;5069776;28;20036;-52
2023/03/18 00:07:01;;;;;;;10.37;3.23;;;11.60;99.90;;;;;;5072135;28;20481;-53
2023/03/18 00:09:27;;;;;;;8.10;2.87;;;11.50;99.90;;;;;;5073735;28;20048;-53
2023/03/18 00:11:55;;;;;;;10.23;3.60;;;11.50;99.90;;;;;;5073688;28;20017;-53
2023/03/18 00:14:21;;;;;;;9.97;2.77;;;11.50;99.90;;;;;;5073316;28;20037;-53
2023/03/18 00:16:48;;;;;;;7.20;2.60;;;11.60;99.90;;;;;;5073324;28;20146;-51
2023/03/18 00:19:14;;;;;;;9.07;3.07;;;11.50;99.90;;;;;;5073514;28;20062;-50
2023/03/18 00:21:39;;;;;;;6.40;2.77;;;11.50;99.90;;;;;;5073412;28;20490;-50
2023/03/18 00:24:05;;;;;;;9.50;3.07;;;11.50;99.90;;;;;;5073239;28;20060;-53
2023/03/18 00:28:59;;;;;;;6.27;2.50;;;11.40;99.90;;;;;;5050846;28;20422;-52
2023/03/18 00:31:26;;;;;;;10.43;3.87;;;11.40;99.90;;;;;;5053303;28;20108;-54
2023/03/18 00:33:52;;;;;;;6.67;2.67;;;11.40;99.90;;;;;;5051780;28;20094;-52
2023/03/18 00:36:24;;;;;;;10.60;3.17;;;11.30;99.90;;;;;;5051807;28;20033;-52
2023/03/18 00:38:56;;;;;;;11.70;2.83;;;11.30;99.90;;;;;;5031932;28;20037;-53
2023/03/18 00:41:26;;;;;;;11.17;3.20;;;11.20;99.90;;;;;;5031862;28;20406;-51
2023/03/18 00:43:53;;;;;;;10.40;2.93;;;11.30;99.90;;;;;;5031721;28;20048;-51
2023/03/18 00:46:23;;;;;;;9.50;3.00;;;11.30;99.90;;;;;;5031768;28;20041;-52
2023/03/18 00:48:51;;;;;;;9.80;2.60;;;11.30;99.90;;;;;;5033176;28;20402;-49
2023/03/18 00:51:18;;;;;;;7.57;3.07;;;11.30;99.90;;;;;;5033009;28;20104;-53
2023/03/18 00:53:47;;;;;;;12.37;3.27;;;11.20;99.90;;;;;;5031417;28;20504;-53
2023/03/18 00:56:14;;;;;;;10.27;3.20;;;11.30;99.90;;;;;;5032926;28;20037;-52
2023/03/18 00:58:40;;;;;;;9.10;3.50;;;11.20;99.90;;;;;;5031216;28;20033;-51
2023/03/18 01:01:07;;;;;;;7.97;3.07;;;11.20;99.90;;;;;;5033398;28;20034;-53
2023/03/18 01:03:34;;;;;;;6.93;2.70;;;11.20;99.90;;;;;;5031583;28;20127;-52
2023/03/18 01:06:01;;;;;;;8.20;3.00;;;11.20;99.90;;;;;;5031428;28;20033;-51
2023/03/18 01:08:29;;;;;;;14.20;4.43;;;11.10;99.90;;;;;;5030930;28;20033;-51
2023/03/18 01:10:55;;;;;;;11.33;3.40;;;11.10;99.90;;;;;;5032587;28;20449;-53
2023/03/18 01:13:22;;;;;;;9.23;3.77;;;11.10;99.90;;;;;;5032741;28;20033;-51
2023/03/18 01:15:49;;;;;;;11.03;3.90;;;11.10;99.90;;;;;;5031244;28;20037;-51
2023/03/18 01:18:15;;;;;;;9.10;3.23;;;11.10;99.90;;;;;;5030736;28;20501;-52
2023/03/18 01:20:43;;;;;;;9.37;3.73;;;11.00;99.90;;;;;;5031084;28;20037;-51
2023/03/18 01:23:11;;;;;;;7.53;3.07;;;11.00;99.90;;;;;;5031099;28;20112;-51
2023/03/18 01:25:38;;;;;;;11.30;3.70;;;11.00;99.90;;;;;;5030952;28;20029;-53
2023/03/18 01:28:05;;;;;;;8.37;3.50;;;11.00;99.90;;;;;;5030638;28;20038;-54
2023/03/18 01:30:34;;;;;;;10.03;3.60;;;11.10;99.90;;;;;;5031054;28;20039;-52
2023/03/18 01:33:03;;;;;;;11.47;3.50;;;11.10;99.90;;;;;;5031048;28;20238;-52
2023/03/18 01:35:31;;;;;;;9.33;3.47;;;11.10;99.90;;;;;;5030685;28;20025;-51
2023/03/18 01:37:57;;;;;;;9.10;3.87;;;11.10;99.90;;;;;;5030518;28;20041;-50
2023/03/18 01:40:24;;;;;;;10.90;4.07;;;11.00;99.90;;;;;;5030833;28;20167;-53
2023/03/18 01:42:56;;;;;;;10.50;3.80;;;11.00;99.90;;;;;;5030866;28;20091;-52
2023/03/18 01:45:27;;;;;;;8.90;3.80;;;11.00;99.90;;;;;;5030434;28;20041;-51
2023/03/18 01:47:57;;;;;;;9.53;3.60;;;11.00;99.90;;;;;;5030345;28;20512;-51
2023/03/18 01:50:31;;;;;;;10.83;3.80;;;10.90;99.90;;;;;;5031787;28;20083;-53
2023/03/18 01:53:05;;;;;;;10.77;4.00;;;10.90;99.90;;;;;;5031825;28;20080;-51
2023/03/18 01:55:32;;;;;;;12.70;4.20;;;10.90;99.90;;;;;;5030326;28;20022;-52
2023/03/18 01:58:01;;;;;;;9.90;3.90;;;10.90;99.90;;;;;;5030244;28;20029;-51
2023/03/18 02:00:27;;;;;;;8.48;4.15;;;10.90;99.90;;;;;;5030387;28;20029;-52
2023/03/18 02:02:53;;;;;;;12.60;4.47;;;10.90;99.90;;;;;;5030238;28;20041;-53
2023/03/18 02:05:23;;;;;;;10.63;4.77;;;10.90;99.90;;;;;;5030198;28;20120;-50
2023/03/18 02:07:50;;;;;;;11.67;4.83;;;11.00;99.90;;;;;;5030117;28;20482;-48
2023/03/18 02:10:28;;;;;;;11.00;4.47;;;11.00;99.90;;;;;;5031569;28;20433;-52
2023/03/18 02:13:03;;;;;;;11.67;4.93;;;11.00;99.90;;;;;;5030270;28;20029;-52
2023/03/18 02:15:37;;;;;;;10.93;4.53;;;11.00;99.90;;;;;;5030139;28;20605;-53
2023/03/18 02:18:19;;;;;;;13.63;4.63;;;11.10;99.90;;;;;;5029807;28;20029;-50
2023/03/18 02:21:12;;;;;;;10.80;4.10;;;11.00;99.90;;;;;;5030005;28;20044;-51
2023/03/18 02:23:57;;;;;;;12.53;4.50;;;11.00;99.90;;;;;;5029812;28;20120;-53
2023/03/18 02:26:42;;;;;;;9.47;4.43;;;11.00;99.90;;;;;;5029842;28;20036;-49
2023/03/18 02:29:11;;;;;;;8.57;4.13;;;10.90;99.90;;;;;;5029313;28;20037;-52
2023/03/18 02:31:46;;;;;;;10.00;4.20;;;10.90;99.90;;;;;;5030163;28;20036;-50
2023/03/18 02:34:13;;;;;;;10.90;4.33;;;10.80;99.90;;;;;;5029779;28;20110;-49
2023/03/18 02:36:41;;;;;;;11.52;4.43;;;10.80;99.90;;;;;;5029549;28;20033;-49
2023/03/18 02:39:12;;;;;;;9.10;4.40;;;10.80;99.90;;;;;;5013387;28;20037;-50
2023/03/18 02:41:38;;;;;;;8.77;4.00;;;10.70;99.90;;;;;;5029683;28;20035;-52
2023/03/18 02:44:04;;;;;;;12.80;4.20;;;10.70;99.90;;;;;;5029403;28;20037;-53
2023/03/18 02:46:54;;;;;;;10.73;4.50;;;10.60;99.90;;;;;;5029267;28;20056;-52
2023/03/18 02:49:22;;;;;;;9.63;4.20;;;10.50;99.90;;;;;;5030749;28;20041;-50
2023/03/18 02:51:50;;;;;;;11.75;4.78;;;10.50;99.90;;;;;;5029490;28;20049;-52
2023/03/18 02:54:28;;;;;;;10.97;4.37;;;10.40;99.90;;;;;;5029260;28;20116;-49
2023/03/18 02:56:54;;;;;;;14.13;4.77;;;10.30;99.90;;;;;;5029124;28;20494;-49
2023/03/18 02:59:21;;;;;;;9.87;4.10;;;10.30;99.90;;;;;;5029288;28;20468;-53
2023/03/18 03:01:50;;;;;;;10.40;4.47;;;10.30;99.90;;;;;;5029373;28;20033;-50
2023/03/18 03:04:18;;;;;;;10.13;4.45;;;10.40;99.90;;;;;;5029174;28;20440;-49
2023/03/18 03:06:44;;;;;;;13.50;4.47;;;10.50;99.90;;;;;;5028963;28;20033;-52
2023/03/18 03:09:14;;;;;;;12.17;4.43;;;10.50;99.90;;;;;;5029198;28;20571;-53
2023/03/18 03:11:41;;;;;;;11.43;4.72;;;10.50;99.90;;;;;;5030601;28;20552;-52
2023/03/18 03:14:14;;;;;;;12.87;4.87;;;10.50;99.90;;;;;;5029074;28;20044;-53
2023/03/18 03:16:40;;;;;;;10.67;4.87;;;10.50;99.90;;;;;;5029073;28;20247;-51
2023/03/18 03:19:07;;;;;;;15.83;4.63;;;10.50;99.90;;;;;;5029315;28;20493;-50
2023/03/18 03:21:35;;;;;;;9.52;4.53;;;10.50;99.90;;;;;;5030519;28;20025;-51
2023/03/18 03:24:05;;;;;;;10.77;5.10;;;10.50;99.90;;;;;;5030149;28;20463;-50
2023/03/18 03:26:31;;;;;;;11.80;4.90;;;10.50;99.90;;;;;;5028825;28;20026;-53
2023/03/18 03:28:57;;;;;;;14.03;4.77;;;10.50;99.90;;;;;;5029038;28;20030;-49
2023/03/18 03:31:25;;;;;;;8.77;4.73;;;10.40;99.90;;;;;;5030517;28;20040;-48
2023/03/18 03:33:51;;;;;;;12.57;5.03;;;10.40;99.90;;;;;;5029136;28;20040;-48
2023/03/18 03:36:17;;;;;;;14.57;5.03;;;10.40;99.90;;;;;;5030332;28;20026;-53
2023/03/18 03:38:44;;;;;;;13.47;5.17;;;10.30;99.90;;;;;;5030125;28;20426;-47
2023/03/18 03:41:11;;;;;;;12.50;5.17;;;10.40;99.90;;;;;;5031649;28;20090;-49
2023/03/18 03:43:38;;;;;;;11.53;5.33;;;10.40;99.90;;;;;;5032807;28;20044;-47
2023/03/18 03:46:04;;;;;;;14.93;5.53;;;10.40;99.90;;;;;;5034380;28;20375;-50
2023/03/18 03:48:30;;;;;;;10.80;6.00;;;10.40;99.90;;;;;;5032526;28;20382;-51
2023/03/18 03:50:56;;;;;;;14.27;5.50;;;10.40;99.90;;;;;;5032900;28;20033;-53
2023/03/18 03:53:23;;;;;;;12.63;5.27;;;10.40;99.90;;;;;;5032608;28;20029;-50
2023/03/18 03:55:49;;;;;;;14.70;5.80;;;10.40;99.90;;;;;;5034068;28;20501;-50
2023/03/18 03:58:14;;;;;;;12.47;6.10;;;10.50;99.90;;;;;;5032645;28;20034;-48
2023/03/18 04:00:42;;;;;;;16.13;6.30;;;10.50;99.90;;;;;;5032948;28;20036;-49
2023/03/18 04:03:08;;;;;;;12.53;5.90;;;10.50;99.90;;;;;;5033922;28;20029;-48
2023/03/18 04:05:34;;;;;;;11.97;6.20;;;10.50;99.90;;;;;;5032455;28;20303;-49
2023/03/18 04:08:00;;;;;;;13.80;6.00;;;10.40;99.90;;;;;;5032116;28;20052;-52
2023/03/18 04:10:35;;;;;;;10.73;6.23;;;10.50;99.90;;;;;;5032495;28;20025;-47
2023/03/18 04:13:03;;;;;;;11.90;5.90;;;10.50;99.90;;;;;;5032468;28;20029;-48
2023/03/18 04:15:29;;;;;;;12.63;6.37;;;10.50;99.90;;;;;;5032217;28;20022;-50
2023/03/18 04:18:01;;;;;;;13.10;6.20;;;10.50;99.90;;;;;;5032086;28;20037;-49
2023/03/18 04:20:28;;;;;;;11.83;6.20;;;10.50;99.90;;;;;;5032256;28;20044;-48
2023/03/18 04:22:54;;;;;;;12.47;6.20;;;10.60;99.90;;;;;;5032289;28;20033;-48
2023/03/18 04:25:22;;;;;;;12.23;6.43;;;10.60;99.90;;;;;;5032021;28;20052;-49
2023/03/18 04:27:54;;;;;;;10.32;6.35;;;10.60;99.90;;;;;;5031823;28;20033;-49
2023/03/18 04:30:22;;;;;;;;;;;10.60;99.90;;;;;;5032633;28;20036;-51
2023/03/18 04:32:56;;;;;;;9.33;6.10;;;10.60;99.90;;;;;;5032151;28;19952;-51
2023/03/18 04:35:22;;;;;;;9.87;6.37;;;10.60;99.90;;;;;;5031873;28;20491;-50
2023/03/18 04:37:49;;;;;;;13.50;6.53;;;10.60;99.90;;;;;;5031762;28;20069;-51
2023/03/18 04:40:15;;;;;;;14.33;7.00;;;10.50;99.90;;;;;;5033175;28;20122;-48
2023/03/18 04:42:42;;;;;;;15.30;7.40;;;10.50;99.90;;;;;;5031912;28;20033;-50
2023/03/18 04:45:10;;;;;;;15.37;7.30;;;10.50;99.90;;;;;;5031561;28;20508;-51
2023/03/18 04:47:37;;;;;;;12.03;7.00;;;10.50;99.90;;;;;;5031433;28;20606;-51
2023/03/18 04:50:03;;;;;;;10.97;7.03;;;10.50;99.90;;;;;;5033004;28;20017;-51
2023/03/18 04:52:30;;;;;;;12.80;6.50;;;10.50;99.90;;;;;;5031159;28;20116;-54
2023/03/18 04:54:57;;;;;;;13.43;6.83;;;10.50;99.90;;;;;;5031471;28;20033;-47
2023/03/18 04:57:22;;;;;;;11.97;7.30;;;10.60;99.90;;;;;;5031399;28;20025;-51
2023/03/18 04:59:52;;;;;;;12.73;6.70;;;10.50;99.90;;;;;;5031634;28;20032;-49
2023/03/18 05:02:18;;;;;;;15.30;6.70;;;10.50;99.90;;;;;;5031535;28;20025;-50
2023/03/18 05:04:44;;;;;;;10.67;6.70;;;10.50;99.90;;;;;;5031315;28;20116;-51
2023/03/18 05:07:14;;;;;;;11.57;6.93;;;10.50;99.90;;;;;;5031064;28;20029;-53
2023/03/18 05:09:42;;;;;;;14.73;7.13;;;10.50;99.90;;;;;;5031780;28;20078;-50
2023/03/18 05:12:13;;;;;;;12.77;6.90;;;10.50;99.90;;;;;;5031286;28;20029;-52
2023/03/18 05:14:41;;;;;;;13.83;6.93;;;10.50;99.90;;;;;;5031030;28;20103;-51
2023/03/18 05:17:14;;;;;;;9.40;6.60;;;10.50;99.90;;;;;;5030980;28;20029;-51
2023/03/18 05:19:45;;;;;;;12.53;7.00;;;10.50;99.90;;;;;;5031121;28;20064;-49
2023/03/18 05:22:16;;;;;;;14.83;7.00;;;10.50;99.90;;;;;;5031159;28;20497;-48
2023/03/18 05:24:45;;;;;;;14.30;7.13;;;10.50;99.90;;;;;;5032165;28;20034;-49
2023/03/18 05:27:17;;;;;;;11.60;6.23;;;10.50;99.90;;;;;;5030569;28;20112;-46
2023/03/18 05:29:47;;;;;;;10.33;6.23;;;10.60;99.90;;;;;;5030773;28;20393;-48
2023/03/18 05:32:17;;;;;;;11.70;6.70;;;10.60;99.90;;;;;;5030897;28;20036;-49
2023/03/18 05:34:46;;;;;;;14.32;7.32;;;10.60;99.90;;;;;;5030868;28;20021;-49
2023/03/18 05:37:14;;;;;;;15.60;7.20;;;10.60;99.90;;;;;;5030313;28;20029;-47
2023/03/18 05:39:45;;;;;;;13.97;7.17;;;10.60;99.90;;;;;;5030682;28;20048;-46
2023/03/18 05:42:14;;;;;;;13.27;6.60;;;10.60;99.90;;;;;;5030606;28;20053;-52
2023/03/18 05:44:41;;;;;;;12.93;6.67;;;10.60;99.90;;;;;;5030456;28;20509;-50
2023/03/18 05:47:09;;;;;;;14.47;8.03;;;10.70;99.90;;;;;;5030257;28;20112;-48
2023/03/18 05:49:45;;;;;;;12.97;6.67;;;10.70;99.90;;;;;;5030466;28;20072;-52
2023/03/18 05:52:18;;;;;;;13.63;6.30;;;10.70;99.90;;;;;;5031970;28;20026;-51
2023/03/18 05:54:47;;;;;;;12.00;5.88;;;10.70;99.90;;;;;;5030333;28;20034;-50
2023/03/18 05:57:17;;;;;;;14.73;5.93;;;10.80;99.90;;;;;;5014476;28;20038;-47
2023/03/18 05:59:44;;;;;;;12.37;5.60;;;10.80;99.90;;;;;;5030283;28;20033;-48
2023/03/18 06:02:10;;;;;;;13.70;5.80;;;10.80;99.90;;;;;;5030277;28;20030;-50
2023/03/18 06:04:36;;;;;;;14.33;5.83;;;10.80;99.90;;;;;;5029228;28;20037;-51
2023/03/18 06:07:04;;;;;;;12.43;5.80;;;10.80;99.90;;;;;;5013688;28;20040;-50
2023/03/18 06:09:33;;;;;;;11.87;5.73;;;10.80;99.90;;;;;;5030193;28;20397;-52
2023/03/18 06:11:59;;;;;;;11.13;5.97;;;10.90;99.90;;;;;;5030245;28;20029;-48
2023/03/18 06:14:28;;;;;;;12.13;5.90;;;10.90;99.90;;;;;;5029925;28;20447;-47
2023/03/18 06:16:56;;;;;;;11.20;6.23;;;10.90;99.90;;;;;;5031105;28;20033;-48
2023/03/18 06:19:22;;;;;;;15.07;6.10;;;11.00;99.90;;;;;;5030100;28;20090;-52
2023/03/18 06:21:48;;;;;;;8.90;5.23;;;10.90;99.90;;;;;;5031491;28;20629;-53
2023/03/18 06:24:14;;;;;;;9.97;5.10;;;10.90;99.90;;;;;;5029705;28;20497;-48
2023/03/18 06:26:42;;;;;;;9.40;5.10;;;10.90;99.90;;;;;;5029452;28;20032;-45
2023/03/18 06:29:09;;;;;;;11.43;4.70;;;10.90;99.90;;;;;;5028465;22;20049;-52
2023/03/18 06:31:36;;;;;;;8.90;4.70;;;10.90;99.90;;;;;;5031031;28;20040;-53
2023/03/18 06:34:04;;;;;;;9.65;5.13;;;10.90;99.90;;;;;;5013399;28;20197;-48
2023/03/18 06:36:33;;;;;;;9.38;4.82;;;10.90;99.90;;;;;;5013175;28;20029;-53
2023/03/18 06:38:59;;;;;;;11.87;5.10;;;11.00;99.90;;;;;;5031444;28;20448;-53
2023/03/18 06:41:26;;;;;;;11.23;5.43;;;11.00;99.90;;;;;;5033017;28;20059;-53
2023/03/18 06:44:05;;;;;;;11.87;5.13;;;11.00;99.90;;;;;;5032636;28;20055;-53
2023/03/18 06:46:31;;;;;;;9.30;4.83;;;11.10;99.90;;;;;;5032632;28;20440;-54
2023/03/18 06:48:59;;;;;;;12.17;5.00;;;11.10;99.90;;;;;;5032799;28;20083;-51
2023/03/18 06:51:30;;;;;;;13.43;5.27;;;11.20;99.90;;;;;;5032861;28;20375;-53
2023/03/18 06:53:57;;;;;;;11.30;5.37;;;11.20;99.90;;;;;;5050459;28;20090;-52
2023/03/18 06:56:24;;;;;;;13.77;5.50;;;11.20;99.90;;;;;;5032511;28;20546;-54
2023/03/18 06:58:59;;;;;;;11.97;5.10;;;11.30;99.90;;;;;;5032687;28;20037;-54
2023/03/18 07:01:28;;;;;;;14.63;6.10;;;11.20;99.90;;;;;;5032873;28;20033;-48
2023/03/18 07:03:55;;;;;;;12.18;5.15;;;11.30;99.90;;;;;;5032548;28;20047;-49
2023/03/18 07:06:21;;;;;;;9.60;5.33;;;11.40;99.90;;;;;;5032419;28;20033;-54
2023/03/18 07:08:47;;;;;;;12.23;5.60;;;11.60;99.90;;;;;;5032366;28;20036;-53
2023/03/18 07:11:13;;;;;;;13.73;6.03;;;11.90;99.90;;;;;;5032541;28;20024;-54
2023/03/18 07:13:41;;;;;;;28.43;15.00;;;12.10;99.90;;;;;;5032349;28;20020;-53
2023/03/18 07:16:15;;;;;;;12.43;6.00;;;12.40;99.90;;;;;;5032294;28;20056;-53
2023/03/18 07:18:41;;;;;;;11.90;6.00;;;12.60;99.90;;;;;;5032394;28;20422;-53
2023/03/18 07:21:08;;;;;;;12.80;6.28;;;12.70;99.90;;;;;;5032630;28;20048;-50
2023/03/18 07:23:34;;;;;;;13.05;6.00;;;13.00;99.90;;;;;;5050038;28;20032;-55
2023/03/18 07:26:00;;;;;;;8.88;5.00;;;13.40;99.90;;;;;;5032460;28;20062;-55
2023/03/18 07:28:26;;;;;;;9.32;4.40;;;13.60;99.90;;;;;;5049778;28;20075;-54
2023/03/18 07:30:53;;;;;;;8.30;4.18;;;13.80;99.90;;;;;;5032328;28;20017;-54
2023/03/18 07:33:19;;;;;;;7.50;4.50;;;14.20;99.90;;;;;;5050106;28;20025;-55
2023/03/18 07:35:45;;;;;;;12.13;5.55;;;14.50;99.90;;;;;;5050203;28;20485;-52
2023/03/18 07:38:11;;;;;;;8.05;4.57;;;14.40;99.90;;;;;;5049975;28;20036;-56
2023/03/18 07:40:37;;;;;;;9.45;4.53;;;14.70;99.90;;;;;;5032518;28;20435;-55
2023/03/18 07:43:04;;;;;;;9.77;4.93;;;14.70;99.90;;;;;;5050140;28;20124;-54
2023/03/18 07:45:30;;;;;;;9.98;4.60;;;14.80;99.90;;;;;;5049836;28;20037;-54
2023/03/18 07:47:56;;;;;;;10.48;4.22;;;14.80;99.90;;;;;;5049821;28;20223;-55
2023/03/18 07:50:22;;;;;;;9.23;4.57;;;14.70;99.90;;;;;;5050195;28;20384;-54
2023/03/18 07:52:48;;;;;;;14.75;5.00;;;14.50;99.90;;;;;;5050502;28;20029;-55
2023/03/18 07:55:14;;;;;;;11.57;5.07;;;14.50;99.90;;;;;;5049929;28;20375;-56
2023/03/18 07:57:40;;;;;;;8.80;4.43;;;14.50;99.90;;;;;;5049684;28;20029;-54
2023/03/18 08:00:10;;;;;;;10.68;5.05;;;14.50;99.90;;;;;;5050049;28;20033;-55
2023/03/18 08:02:38;;;;;;;7.80;4.32;;;14.40;99.90;;;;;;5050030;28;20053;-55
2023/03/18 08:05:08;;;;;;;9.35;4.03;;;14.30;99.90;;;;;;5049850;28;20493;-55
2023/03/18 08:07:34;;;;;;;9.40;4.47;;;14.30;99.90;;;;;;5049528;28;20029;-54
2023/03/18 08:10:00;;;;;;;7.93;4.18;;;14.20;99.90;;;;;;5050086;28;20032;-54
2023/03/18 08:12:26;;;;;;;8.40;4.47;;;14.10;99.90;;;;;;5049870;28;20032;-55
2023/03/18 08:14:52;;;;;;;24.50;13.02;;;14.10;99.90;;;;;;5049964;28;20466;-55
2023/03/18 08:17:18;;;;;;;10.45;5.93;;;14.40;99.90;;;;;;5049516;28;20032;-52
2023/03/18 08:19:44;;;;;;;13.80;6.05;;;14.60;99.90;;;;;;5049743;28;20032;-53
2023/03/18 08:22:10;;;;;;;9.45;5.15;;;14.60;99.90;;;;;;5031910;28;20037;-54
2023/03/18 08:24:37;;;;;;;10.02;4.65;;;14.60;99.90;;;;;;5049808;28;20087;-56
2023/03/18 08:27:04;;;;;;;7.25;4.40;;;14.50;99.90;;;;;;5050324;28;20032;-54
2023/03/18 08:29:29;;;;;;;6.22;3.78;;;14.30;99.90;;;;;;5053288;28;20068;-53
2023/03/18 08:31:56;;;;;;;7.72;4.63;;;14.40;99.90;;;;;;5035419;28;20057;-52
2023/03/18 08:34:22;;;;;;;8.27;4.45;;;14.50;99.90;;;;;;5053132;28;20452;-55
2023/03/18 08:36:48;;;;;;;10.35;5.65;;;14.60;99.90;;;;;;5053150;28;20028;-55
2023/03/18 08:39:14;;;;;;;10.15;5.40;;;15.00;99.90;;;;;;5053187;28;20040;-53
2023/03/18 08:41:40;;;;;;;11.02;4.95;;;15.10;99.90;;;;;;5053138;28;20040;-52
2023/03/18 08:44:09;;;;;;;7.88;4.68;;;15.50;99.90;;;;;;5052957;28;20067;-53
2023/03/18 08:46:36;;;;;;;11.77;4.32;;;15.50;99.90;;;;;;5052885;28;20041;-50
2023/03/18 08:49:02;;;;;;;7.80;4.50;;;15.60;99.90;;;;;;5053262;28;20040;-51
2023/03/18 08:51:28;;;;;;;9.88;3.90;;;15.80;99.90;;;;;;5052979;28;20036;-53
2023/03/18 08:53:54;;;;;;;8.68;4.03;;;15.70;99.90;;;;;;5052858;28;20032;-55
2023/03/18 08:56:19;;;;;;;6.03;3.72;;;15.90;99.90;;;;;;5052787;28;20100;-52
2023/03/18 08:58:47;;;;;;;8.70;3.90;;;16.00;99.90;;;;;;5052673;28;20431;-52
2023/03/18 09:01:13;;;;;;;10.73;5.00;;;16.30;99.90;;;;;;5052796;28;20116;-52
2023/03/18 09:03:39;;;;;;;11.77;4.72;;;16.50;99.90;;;;;;5052421;28;20033;-53
2023/03/18 09:06:06;;;;;;;7.50;3.47;;;16.50;99.90;;;;;;5052796;28;20040;-53
2023/03/18 09:08:32;;;;;;;7.22;3.40;;;16.60;99.90;;;;;;5052254;28;20040;-53
2023/03/18 09:10:58;;;;;;;5.90;2.72;;;16.70;99.90;;;;;;5052731;28;20021;-52
2023/03/18 09:13:25;;;;;;;6.72;2.70;;;16.70;99.90;;;;;;5052422;28;20477;-51
2023/03/18 09:15:51;;;;;;;6.30;2.72;;;16.60;99.90;;;;;;5052593;28;20025;-51
2023/03/18 09:18:17;;;;;;;5.90;2.63;;;16.40;99.90;;;;;;5052640;28;20086;-53
2023/03/18 09:20:44;;;;;;;6.80;2.50;;;16.30;99.90;;;;;;5052608;28;20044;-54
2023/03/18 09:23:12;;;;;;;4.82;2.70;;;16.10;99.90;;;;;;5052420;28;20036;-54
2023/03/18 09:25:39;;;;;;;6.25;2.75;;;16.10;99.90;;;;;;5052019;28;20470;-52
2023/03/18 09:28:05;;;;;;;6.30;2.67;;;16.10;99.90;;;;;;5051809;28;20129;-54
2023/03/18 09:30:31;;;;;;;5.05;2.60;;;16.20;99.90;;;;;;5052164;28;20067;-54
2023/03/18 09:32:57;;;;;;;5.50;2.55;;;16.20;99.90;;;;;;5052427;28;20032;-51
2023/03/18 09:35:23;;;;;;;4.70;2.50;;;16.20;99.90;;;;;;5052113;28;20048;-53
2023/03/18 09:37:49;;;;;;;5.40;2.30;;;16.20;99.90;;;;;;5051850;28;20055;-52
2023/03/18 09:40:25;;;;;;;5.93;2.42;;;16.70;99.90;;;;;;5052049;28;20033;-52
2023/03/18 09:43:09;;;;;;;5.65;2.17;;;17.30;99.90;;;;;;5052131;28;20040;-52
2023/03/18 09:46:20;;;;;;;4.85;2.35;;;17.90;99.90;;;;;;5051823;28;20390;-53
2023/03/18 09:49:04;;;;;;;5.88;2.00;;;18.20;99.90;;;;;;5005142;28;20059;-54
2023/03/18 09:51:48;;;;;;;3.92;2.00;;;18.40;99.90;;;;;;5051903;28;20033;-51
2023/03/18 09:54:32;;;;;;;5.85;2.08;;;18.80;99.90;;;;;;5051777;28;20330;-52
2023/03/18 09:56:58;;;;;;;6.07;2.40;;;19.80;99.40;;;;;;5051651;28;20478;-53
2023/03/18 09:59:28;;;;;;;4.57;2.40;;;20.60;97.10;;;;;;5051748;28;20029;-55
2023/03/18 10:01:56;;;;;;;4.30;2.45;;;20.80;97.00;;;;;;5051751;28;20078;-54
2023/03/18 10:04:45;;;;;;;4.75;2.40;;;21.00;96.30;;;;;;5051489;28;20032;-54
2023/03/18 10:07:18;;;;;;;4.78;2.53;;;21.30;96.00;;;;;;5051488;28;20097;-53
2023/03/18 10:09:47;;;;;;;5.43;2.30;;;21.70;94.40;;;;;;5051504;28;20082;-54
2023/03/18 10:12:32;;;;;;;6.85;2.30;;;21.70;94.00;;;;;;5051549;28;20025;-55
2023/03/18 10:15:26;;;;;;;6.97;2.80;;;22.10;93.20;;;;;;5051331;28;20393;-53
2023/03/18 10:18:00;;;;;;;5.68;2.17;;;22.30;92.90;;;;;;5051339;28;20033;-56
2023/03/18 10:20:52;;;;;;;3.55;1.70;;;22.70;91.80;;;;;;5051365;28;20051;-55
2023/03/18 10:23:30;;;;;;;12.55;3.65;;;23.20;90.50;;;;;;5051317;28;20040;-54
2023/03/18 10:26:04;;;;;;;3.75;1.77;;;22.90;90.10;;;;;;5051198;28;20037;-54
2023/03/18 10:28:55;;;;;;;6.35;2.40;;;23.20;88.80;;;;;;5050906;28;20135;-54
2023/03/18 10:31:58;;;;;;;5.78;1.77;;;23.80;86.00;;;;;;5051460;28;20115;-53
2023/03/18 10:34:33;;;;;;;3.60;1.50;;;24.20;83.60;;;;;;5051059;28;20025;-54
2023/03/18 10:37:42;;;;;;;4.50;1.90;;;23.30;83.40;;;;;;5050888;28;20033;-54
2023/03/18 10:40:16;;;;;;;4.10;2.10;;;23.10;84.20;;;;;;5051058;28;20044;-53
2023/03/18 10:42:43;;;;;;;5.32;2.45;;;23.30;85.60;;;;;;5051020;28;20086;-55
2023/03/18 10:45:29;;;;;;;4.35;1.98;;;23.30;84.20;;;;;;5050734;28;20056;-52
2023/03/18 10:48:01;;;;;;;4.78;2.00;;;24.10;81.20;;;;;;5050522;28;20033;-55
2023/03/18 10:50:37;;;;;;;4.18;2.00;;;24.50;79.20;;;;;;5050488;28;20037;-54
2023/03/18 10:53:14;;;;;;;3.97;1.95;;;23.60;81.00;;;;;;5050835;28;20017;-53
2023/03/18 10:56:07;;;;;;;4.50;1.90;;;24.40;78.70;;;;;;5050713;28;20029;-50
2023/03/18 10:58:34;;;;;;;3.65;1.77;;;24.60;77.60;;;;;;5046862;28;20496;-54
2023/03/18 11:01:00;;;;;;;5.97;2.45;;;25.20;74.70;;;;;;5050708;28;20549;-53
2023/03/18 11:03:31;;;;;;;3.75;1.80;;;25.50;72.50;;;;;;5050549;28;20115;-52
2023/03/18 11:06:00;;;;;;;3.65;1.45;;;25.80;71.80;;;;;;5051155;28;20048;-50
2023/03/18 11:08:35;;;;;;;3.65;1.85;;;25.30;72.80;;;;;;5050240;28;20116;-49
2023/03/18 11:11:25;;;;;;;3.20;1.70;;;25.10;72.20;;;;;;5050570;28;20029;-53
2023/03/18 11:13:54;;;;;;;4.00;1.83;;;24.10;73.10;;;;;;5050393;28;20055;-52
2023/03/18 11:16:44;;;;;;;3.63;1.75;;;24.20;74.00;;;;;;5050506;28;20032;-49
2023/03/18 11:19:36;;;;;;;3.58;1.60;;;24.10;73.50;;;;;;5050340;28;20037;-52
2023/03/18 11:22:14;;;;;;;2.67;1.35;;;24.00;73.60;;;;;;5050538;28;20036;-53
2023/03/18 11:24:43;;;;;;;5.50;2.20;;;24.60;72.10;;;;;;5050185;28;20086;-54
2023/03/18 11:27:14;;;;;;;4.38;1.80;;;23.70;72.50;;;;;;5050086;28;20429;-53
2023/03/18 11:30:02;;;;;;;2.92;1.40;;;23.50;73.90;;;;;;5050464;28;20033;-52
2023/03/18 11:32:29;;;;;;;6.47;2.00;;;23.50;74.50;;;;;;5050829;28;20032;-52
2023/03/18 11:35:06;;;;;;;2.13;1.30;;;23.20;75.30;;;;;;5050264;28;20485;-52
2023/03/18 11:37:38;;;;;;;4.80;2.42;;;23.50;73.60;;;;;;5050215;28;20029;-53
2023/03/18 11:40:13;;;;;;;3.80;1.65;;;24.10;71.70;;;;;;5050610;28;20049;-52
2023/03/18 11:42:40;;;;;;;2.88;1.70;;;23.90;73.20;;;;;;5050554;28;20028;-52
2023/03/18 11:45:25;;;;;;;4.95;2.53;;;24.40;70.60;;;;;;5050327;28;20029;-52
2023/03/18 11:47:54;;;;;;;3.72;1.60;;;24.70;69.70;;;;;;5050226;28;20516;-51
2023/03/18 11:50:26;;;;;;;2.95;1.67;;;24.30;72.60;;;;;;5032547;28;20474;-50
2023/03/18 11:53:23;;;;;;;4.88;3.08;;;24.10;72.70;;;;;;5050511;28;20481;-49
2023/03/18 11:56:02;;;;;;;3.67;1.60;;;24.40;70.50;;;;;;5050164;28;20033;-51
2023/03/18 11:58:55;;;;;;;6.75;3.67;;;24.00;70.40;;;;;;5050158;28;20072;-50
2023/03/18 12:01:39;;;;;;;3.70;1.65;;;23.30;72.30;;;;;;5050475;28;20033;-50
2023/03/18 12:04:16;;;;;;;3.15;1.63;;;22.50;74.40;;;;;;5054101;28;20040;-51
2023/03/18 12:07:14;;;;;;;3.25;2.03;;;22.40;75.40;;;;;;5054008;28;20444;-54
2023/03/18 12:09:42;;;;;;;;;;;22.60;75.40;;;;;;5012433;28;20033;-52
2023/03/18 12:12:47;;;;;;;3.45;1.60;;;22.60;75.70;;;;;;5054405;28;20272;-50
2023/03/18 12:15:23;;;;;;;7.32;4.68;;;23.00;75.60;;;;;;5053725;28;20037;-53
2023/03/18 12:18:10;;;;;;;5.00;2.50;;;23.40;73.00;;;;;;5053678;28;20044;-50
2023/03/18 12:20:55;;;;;;;5.32;1.63;;;22.80;74.50;;;;;;5053797;28;20159;-49
2023/03/18 12:23:38;;;;;;;3.78;1.80;;;22.30;76.00;;;;;;5053625;28;20086;-50
2023/03/18 12:26:25;;;;;;;4.10;2.50;;;21.50;77.60;;;;;;5053897;28;20126;-51
2023/03/18 12:29:24;;;;;;;5.75;2.97;;;20.90;80.50;;;;;;5078919;22;20471;-52
2023/03/18 12:31:50;;;;;;;3.33;1.70;;;20.30;82.40;;;;;;5073412;28;20021;-50
2023/03/18 12:34:40;;;;;;;4.30;1.50;;;20.20;82.70;;;;;;5073432;28;20040;-51
2023/03/18 12:37:24;;;;;;;3.78;1.40;;;20.30;82.60;;;;;;5073260;28;20078;-51
2023/03/18 12:40:03;;;;;;;2.40;1.67;;;20.40;81.80;;;;;;5053273;28;20136;-50
2023/03/18 12:42:32;;;;;;;3.65;1.67;;;20.40;82.60;;;;;;5053250;28;20029;-48
2023/03/18 12:45:16;;;;;;;5.30;2.20;;;20.40;83.00;;;;;;5053070;28;20067;-50
2023/03/18 12:47:50;;;;;;;4.88;1.92;;;20.20;83.90;;;;;;5052966;28;20374;-53
2023/03/18 12:50:27;;;;;;;3.72;1.60;;;20.10;84.30;;;;;;5053086;28;20033;-49
2023/03/18 12:53:01;;;;;;;3.90;1.52;;;20.10;86.70;;;;;;5052982;28;20048;-52
2023/03/18 12:55:38;;;;;;;6.00;2.55;;;20.20;84.00;;;;;;5035003;28;20371;-52
2023/03/18 12:58:33;;;;;;;4.32;1.92;;;20.40;82.90;;;;;;5052774;28;20588;-50
2023/03/18 13:01:07;;;;;;;7.00;3.75;;;20.20;83.20;;;;;;5052308;28;20072;-50
2023/03/18 13:03:34;;;;;;;7.80;3.67;;;20.00;83.30;;;;;;5052814;28;20037;-47
2023/03/18 13:06:09;;;;;;;6.72;3.20;;;19.80;85.20;;;;;;5034954;28;20036;-49